CDT,Max TemperatureF,Mean TemperatureF,Min TemperatureF,Max Dew PointF,MeanDew PointF,Min DewpointF,Max Humidity, Mean Humidity, Min Humidity, Max Sea Level PressureIn, Mean Sea Level PressureIn, Min Sea Level PressureIn, Max VisibilityMiles, Mean VisibilityMiles, Min VisibilityMiles, Max Wind SpeedMPH, Mean Wind SpeedMPH, Max Gust SpeedMPH,PrecipitationIn, CloudCover, Events, WindDirDegrees
2013-3-1,54,39,24,14,10,8,51,38,20,30.33,30.26,30.20,10,10,10,21,5,25,0.00,0,,278
2013-3-2,67,46,25,19,15,10,56,32,16,30.46,30.33,30.19,10,10,10,7,3,,0.00,0,,53
2013-3-3,84,56,28,22,16,9,57,34,9,30.18,30.04,29.83,10,10,10,22,4,29,0.00,0,,240
2013-3-4,84,68,52,28,16,10,20,14,6,29.96,29.83,29.72,10,9,3,29,15,41,0.00,2,,243
2013-3-5,66,52,37,34,25,18,62,42,19,30.47,30.28,29.98,10,9,3,31,13,46,0.00,2,,26
2013-3-6,71,52,34,25,19,17,53,32,17,30.33,30.18,30.03,10,10,10,16,7,21,0.00,0,,82
2013-3-7,76,56,35,33,21,16,49,37,16,30.07,30.00,29.90,10,10,10,14,4,,0.00,0,,68
2013-3-8,83,66,50,52,36,27,67,38,19,30.01,29.91,29.76,10,10,10,24,5,31,0.00,2,,156
2013-3-9,70,59,48,52,34,18,88,46,19,29.93,29.81,29.73,10,10,4,29,12,40,0.00,1,,267
2013-3-10,56,46,36,23,17,13,53,33,19,30.20,30.11,29.95,10,10,10,18,8,26,0.00,2,,317
2013-3-11,72,48,25,22,15,10,53,35,14,30.19,30.11,29.96,10,10,10,16,6,23,0.00,0,,227
2013-3-12,69,50,33,29,19,11,40,29,22,30.32,30.11,29.99,10,10,7,16,7,28,0.00,0,,4
2013-3-13,75,54,32,29,23,19,61,38,17,30.43,30.31,30.19,10,10,10,12,5,,0.00,0,,86
2013-3-14,83,58,34,31,24,19,60,35,11,30.29,30.21,30.12,10,10,10,12,4,,0.00,0,,140
2013-3-15,89,62,35,33,24,16,61,33,9,30.15,30.03,29.88,10,10,10,15,5,21,0.00,0,,237
2013-3-16,91,65,39,31,20,13,59,26,8,29.90,29.81,29.69,10,10,10,28,5,36,0.00,0,,235
2013-3-17,85,65,45,40,26,13,71,32,10,29.93,29.79,29.68,10,10,10,28,8,40,0.00,1,,278
2013-3-18,80,66,52,23,19,17,26,18,12,29.99,29.89,29.78,10,10,10,18,10,28,0.00,0,,252
2013-3-19,84,62,41,28,21,17,40,26,12,29.98,29.93,29.86,10,10,10,21,5,28,0.00,0,,254
2013-3-20,67,55,43,40,36,33,72,47,33,30.34,30.16,29.93,10,10,10,13,7,17,0.00,1,,85
2013-3-21,87,64,41,41,31,19,74,46,12,29.91,29.75,29.60,10,10,10,29,7,39,0.00,0,,233
2013-3-22,77,66,55,36,28,19,41,26,20,29.80,29.71,29.66,10,10,10,13,9,17,0.00,0,,101
2013-3-23,79,59,39,38,30,-2,75,44,10,30.03,29.78,29.70,10,9,3,31,9,44,0.00,1,,260
2013-3-24,54,40,28,21,12,8,53,34,18,30.30,30.18,30.01,10,9,3,22,10,34,0.00,2,,11
2013-3-25,56,44,32,16,11,8,37,30,20,30.34,30.21,30.07,10,10,10,16,10,22,0.00,0,,73
2013-3-26,72,50,29,22,13,6,40,26,14,30.33,30.22,30.06,10,10,10,16,9,23,0.00,0,,96
2013-3-27,83,58,35,41,27,22,62,38,14,30.11,30.03,29.93,10,10,10,16,7,,0.00,0,,95
2013-3-28,86,50,41,51,41,37,86,76,53,30.07,30.03,30.01,10,10,10,13,6,,0.00,0,,66
2013-3-29,86,64,44,52,45,32,93,58,15,30.09,30.02,29.94,10,10,7,14,7,,0.00,0,,63
2013-3-30,86,64,41,53,39,26,94,52,12,30.07,29.99,29.88,10,10,7,13,6,17,0.00,0,,314
2013-3-31,79,69,58,43,34,26,42,29,19,30.09,29.98,29.91,10,10,4,22,6,33,0.00,1,,332